createdAt,value
2018-12-30T00:00:43.600Z,46.50
2018-12-30T00:03:09.794Z,46.60
2018-12-30T00:05:36.028Z,46.50
2018-12-30T00:08:02.231Z,46.40
2018-12-30T00:10:28.440Z,46.40
2018-12-30T00:12:54.638Z,46.20
2018-12-30T00:15:20.921Z,46.10
2018-12-30T00:17:47.670Z,46.20
2018-12-30T00:20:13.946Z,46.30
2018-12-30T00:22:40.147Z,46.80
2018-12-30T00:25:06.370Z,46.30
2018-12-30T00:27:32.676Z,46.30
2018-12-30T00:30:00.711Z,46.90
2018-12-30T00:32:26.931Z,46.20
2018-12-30T00:34:53.150Z,46.30
2018-12-30T00:37:19.380Z,46.20
2018-12-30T00:39:45.576Z,46.10
2018-12-30T00:42:11.793Z,46.10
2018-12-30T00:44:38.006Z,46.10
2018-12-30T00:47:04.227Z,46.20
2018-12-30T00:49:30.454Z,46.10
2018-12-30T00:51:56.669Z,46.30
2018-12-30T00:54:23.019Z,46.40
2018-12-30T00:56:49.259Z,46.40
2018-12-30T00:59:15.484Z,46.30
2018-12-30T01:01:41.701Z,46.20
2018-12-30T01:04:09.586Z,46.30
2018-12-30T01:06:35.779Z,46.20
2018-12-30T01:09:01.995Z,46.20
2018-12-30T01:11:28.215Z,46.40
2018-12-30T01:13:54.440Z,46.50
2018-12-30T01:16:20.658Z,46.50
2018-12-30T01:18:46.886Z,46.60
2018-12-30T01:21:13.090Z,46.70
2018-12-30T01:23:39.388Z,46.70
2018-12-30T01:26:05.598Z,46.80
2018-12-30T01:28:32.050Z,46.90
2018-12-30T01:30:58.262Z,46.80
2018-12-30T01:33:24.710Z,46.60
2018-12-30T01:35:50.932Z,46.40
2018-12-30T01:38:17.180Z,46.40
2018-12-30T01:40:43.372Z,46.50
2018-12-30T01:43:10.277Z,46.50
2018-12-30T01:45:36.484Z,46.50
2018-12-30T01:48:02.700Z,46.60
2018-12-30T01:50:28.919Z,46.80
2018-12-30T01:52:55.146Z,46.70
2018-12-30T01:55:21.408Z,46.60
2018-12-30T01:57:47.611Z,46.50
2018-12-30T02:00:13.851Z,46.50
2018-12-30T02:02:40.431Z,46.30
2018-12-30T02:05:07.407Z,46.20
2018-12-30T02:07:33.600Z,46.20
2018-12-30T02:09:59.803Z,46.30
2018-12-30T02:12:26.027Z,46.40
2018-12-30T02:14:52.249Z,46.40
2018-12-30T02:17:18.476Z,46.30
2018-12-30T02:19:44.667Z,46.20
2018-12-30T02:22:10.891Z,46.20
2018-12-30T02:24:37.117Z,46.10
2018-12-30T02:27:03.332Z,46.00
2018-12-30T02:29:29.539Z,45.90
2018-12-30T02:31:55.753Z,46.00
2018-12-30T02:34:21.979Z,46.00
2018-12-30T02:36:48.638Z,45.90
2018-12-30T02:39:14.863Z,45.90
2018-12-30T02:41:41.118Z,45.80
2018-12-30T02:44:07.954Z,45.90
2018-12-30T02:46:34.194Z,46.10
2018-12-30T02:49:00.429Z,45.90
2018-12-30T02:51:26.648Z,45.80
2018-12-30T02:53:52.839Z,45.70
2018-12-30T02:56:19.078Z,45.70
2018-12-30T02:58:45.319Z,45.60
2018-12-30T03:01:11.564Z,45.50
2018-12-30T03:03:37.739Z,45.50
2018-12-30T03:06:04.054Z,45.50
2018-12-30T03:08:30.251Z,45.50
2018-12-30T03:10:56.501Z,45.50
2018-12-30T03:13:22.688Z,45.50
2018-12-30T03:15:48.910Z,45.40
2018-12-30T03:18:15.876Z,45.50
2018-12-30T03:20:42.837Z,45.50
2018-12-30T03:23:09.064Z,45.50
2018-12-30T03:25:35.300Z,45.30
2018-12-30T03:28:02.504Z,45.30
2018-12-30T03:30:28.696Z,45.30
2018-12-30T03:32:54.981Z,45.40
2018-12-30T03:35:21.179Z,45.20
2018-12-30T03:37:47.384Z,45.20
2018-12-30T03:40:13.591Z,45.20
2018-12-30T03:42:39.830Z,46.00
2018-12-30T03:45:06.045Z,45.50
2018-12-30T03:47:32.380Z,45.60
2018-12-30T03:49:58.587Z,45.60
2018-12-30T03:52:24.837Z,45.50
2018-12-30T03:54:51.029Z,45.60
2018-12-30T03:57:18.139Z,45.50
2018-12-30T03:59:44.355Z,45.60
2018-12-30T04:02:10.565Z,45.50
2018-12-30T04:04:36.802Z,45.50
2018-12-30T04:07:03.024Z,45.50
2018-12-30T04:09:29.235Z,45.50
2018-12-30T04:11:55.427Z,45.50
2018-12-30T04:14:21.615Z,45.50
2018-12-30T04:16:47.844Z,45.40
2018-12-30T04:19:14.054Z,45.20
2018-12-30T04:21:41.031Z,45.20
2018-12-30T04:24:07.255Z,45.20
2018-12-30T04:26:33.458Z,45.20
2018-12-30T04:28:59.668Z,45.20
2018-12-30T04:31:25.847Z,45.20
2018-12-30T04:33:52.049Z,45.30
2018-12-30T04:36:18.335Z,45.20
2018-12-30T04:38:44.517Z,45.30
2018-12-30T04:41:10.707Z,45.90
2018-12-30T04:43:37.659Z,45.40
2018-12-30T04:46:03.835Z,45.30
2018-12-30T04:48:30.036Z,45.30
2018-12-30T04:50:56.235Z,45.40
2018-12-30T04:53:23.206Z,45.50
2018-12-30T04:55:49.412Z,45.40
2018-12-30T04:58:15.632Z,45.50
2018-12-30T05:00:41.833Z,45.50
2018-12-30T05:03:08.056Z,45.50
2018-12-30T05:05:34.256Z,45.50
2018-12-30T05:08:00.506Z,45.60
2018-12-30T05:10:26.790Z,45.80
2018-12-30T05:12:53.005Z,45.80
2018-12-30T05:15:19.228Z,45.80
2018-12-30T05:17:45.404Z,45.70
2018-12-30T05:20:11.616Z,45.50
2018-12-30T05:22:37.812Z,45.40
2018-12-30T05:25:04.808Z,45.50
2018-12-30T05:27:31.001Z,45.50
2018-12-30T05:29:57.201Z,45.60
2018-12-30T05:32:23.416Z,45.40
2018-12-30T05:34:49.657Z,45.40
2018-12-30T05:37:15.863Z,45.60
2018-12-30T05:39:42.093Z,45.60
2018-12-30T05:42:08.293Z,45.70
2018-12-30T05:44:34.493Z,45.50
2018-12-30T05:47:01.432Z,45.40
2018-12-30T05:49:27.633Z,45.40
2018-12-30T05:51:53.800Z,45.40
2018-12-30T05:54:20.004Z,45.40
2018-12-30T05:56:46.964Z,45.50
2018-12-30T05:59:13.211Z,45.40
2018-12-30T06:01:39.433Z,45.40
2018-12-30T06:04:05.652Z,45.40
2018-12-30T06:06:31.832Z,45.30
2018-12-30T06:08:58.024Z,45.30
2018-12-30T06:11:24.248Z,45.40
2018-12-30T06:13:50.430Z,45.50
2018-12-30T06:16:16.620Z,45.70
2018-12-30T06:18:42.809Z,45.80
2018-12-30T06:21:08.992Z,45.80
2018-12-30T06:23:35.195Z,45.80
2018-12-30T06:26:01.377Z,45.70
2018-12-30T06:28:28.330Z,45.60
2018-12-30T06:30:54.546Z,45.60
2018-12-30T06:33:20.751Z,45.80
2018-12-30T06:35:46.983Z,45.80
2018-12-30T06:38:13.193Z,46.30
2018-12-30T06:40:39.405Z,45.80
2018-12-30T06:43:05.583Z,45.70
2018-12-30T06:45:32.703Z,45.90
2018-12-30T06:47:59.004Z,45.70
2018-12-30T06:50:25.207Z,45.90
2018-12-30T06:52:57.513Z,46.00
2018-12-30T06:55:17.659Z,45.90
2018-12-30T06:57:43.908Z,46.00
2018-12-30T07:00:10.098Z,46.00
2018-12-30T07:02:36.300Z,45.90
2018-12-30T07:05:02.522Z,46.00
2018-12-30T07:07:28.723Z,46.10
2018-12-30T07:09:54.891Z,46.00
2018-12-30T07:12:21.103Z,45.90
2018-12-30T07:14:47.285Z,46.10
2018-12-30T07:17:13.487Z,46.00
2018-12-30T07:19:40.435Z,46.30
2018-12-30T07:22:06.660Z,46.30
2018-12-30T07:24:32.839Z,46.50
2018-12-30T07:26:59.054Z,46.60
2018-12-30T07:29:25.254Z,46.60
2018-12-30T07:31:51.482Z,46.50
2018-12-30T07:34:18.063Z,46.60
2018-12-30T07:36:44.319Z,46.50
2018-12-30T07:39:10.491Z,46.20
2018-12-30T07:41:36.821Z,46.10
2018-12-30T07:44:02.987Z,45.90
2018-12-30T07:46:29.208Z,45.80
2018-12-30T07:48:55.438Z,45.80
2018-12-30T07:51:21.692Z,45.70
2018-12-30T07:53:47.856Z,45.80
2018-12-30T07:56:14.047Z,45.70
2018-12-30T07:58:40.228Z,45.70
2018-12-30T08:01:06.429Z,45.60
2018-12-30T08:03:32.621Z,45.50
2018-12-30T08:05:58.815Z,45.50
2018-12-30T08:08:25.021Z,45.60
2018-12-30T08:10:51.981Z,45.40
2018-12-30T08:13:18.204Z,45.30
2018-12-30T08:15:44.383Z,45.30
2018-12-30T08:18:12.097Z,45.10
2018-12-30T08:20:38.278Z,45.00
2018-12-30T08:23:04.496Z,45.10
2018-12-30T08:25:30.660Z,44.90
2018-12-30T08:27:57.635Z,45.00
2018-12-30T08:30:24.240Z,44.90
2018-12-30T08:32:50.443Z,45.00
2018-12-30T08:35:16.666Z,45.10
2018-12-30T08:37:44.360Z,45.00
2018-12-30T08:40:10.567Z,45.00
2018-12-30T08:42:36.775Z,45.10
2018-12-30T08:45:02.971Z,45.00
2018-12-30T08:47:29.248Z,45.00
2018-12-30T08:49:55.480Z,44.80
2018-12-30T08:52:23.085Z,44.70
2018-12-30T08:54:49.376Z,44.70
2018-12-30T08:57:15.595Z,44.60
2018-12-30T08:59:41.835Z,44.30
2018-12-30T09:02:08.044Z,44.40
2018-12-30T09:04:34.250Z,44.50
2018-12-30T09:07:00.438Z,44.40
2018-12-30T09:09:26.684Z,44.60
2018-12-30T09:11:52.863Z,44.60
2018-12-30T09:14:19.062Z,45.00
2018-12-30T09:16:45.270Z,44.50
2018-12-30T09:19:11.474Z,44.50
2018-12-30T09:21:37.647Z,44.60
2018-12-30T09:24:03.863Z,44.30
2018-12-30T09:26:30.063Z,44.40
2018-12-30T09:28:56.267Z,44.40
2018-12-30T09:31:22.454Z,44.40
2018-12-30T09:33:48.673Z,44.10
2018-12-30T09:36:14.852Z,44.40
2018-12-30T09:38:41.047Z,44.40
2018-12-30T09:41:07.228Z,44.50
2018-12-30T09:43:33.443Z,44.50
2018-12-30T09:46:00.605Z,44.50
2018-12-30T09:48:33.581Z,44.40
2018-12-30T09:50:53.413Z,44.40
2018-12-30T09:53:19.656Z,44.40
2018-12-30T09:55:45.854Z,44.40
2018-12-30T09:58:12.057Z,44.40
2018-12-30T10:00:38.985Z,44.30
2018-12-30T10:03:05.169Z,44.30
2018-12-30T10:05:31.371Z,44.30
2018-12-30T10:07:57.551Z,44.20
2018-12-30T10:10:23.747Z,44.20
2018-12-30T10:12:49.938Z,44.20
2018-12-30T10:15:16.131Z,44.20
2018-12-30T10:17:42.320Z,44.00
2018-12-30T10:20:08.531Z,44.00
2018-12-30T10:22:35.496Z,44.00
2018-12-30T10:25:01.709Z,44.00
2018-12-30T10:27:27.913Z,44.00
2018-12-30T10:29:54.130Z,43.90
2018-12-30T10:32:20.321Z,43.90
2018-12-30T10:34:46.527Z,43.90
2018-12-30T10:37:12.706Z,43.80
2018-12-30T10:39:38.902Z,43.90
2018-12-30T10:42:05.099Z,43.90
2018-12-30T10:44:31.295Z,43.80
2018-12-30T10:46:57.542Z,43.70
2018-12-30T10:49:23.752Z,43.70
2018-12-30T10:51:49.956Z,43.60
2018-12-30T10:54:16.135Z,43.70
2018-12-30T10:56:42.349Z,43.70
2018-12-30T10:59:09.292Z,43.70
2018-12-30T11:01:35.485Z,43.70
2018-12-30T11:04:02.703Z,43.70
2018-12-30T11:06:28.902Z,43.70
2018-12-30T11:08:55.096Z,43.60
2018-12-30T11:11:21.300Z,43.60
2018-12-30T11:13:47.487Z,43.60
2018-12-30T11:16:13.724Z,43.60
2018-12-30T11:18:39.891Z,43.60
2018-12-30T11:21:06.099Z,43.50
2018-12-30T11:23:32.296Z,43.50
2018-12-30T11:25:59.265Z,43.40
2018-12-30T11:28:25.440Z,43.30
2018-12-30T11:30:52.430Z,43.40
2018-12-30T11:33:18.619Z,43.40
2018-12-30T11:35:45.615Z,43.20
2018-12-30T11:38:11.787Z,43.20
2018-12-30T11:40:37.975Z,43.30
2018-12-30T11:43:04.177Z,43.20
2018-12-30T11:45:30.397Z,43.10
2018-12-30T11:47:56.604Z,43.10
2018-12-30T11:50:23.567Z,43.10
2018-12-30T11:52:49.752Z,43.00
2018-12-30T11:55:15.948Z,43.00
2018-12-30T11:57:42.153Z,43.10
2018-12-30T12:00:09.100Z,43.00
2018-12-30T12:02:35.326Z,42.90
2018-12-30T12:05:02.220Z,42.90
2018-12-30T12:07:28.445Z,42.90
2018-12-30T12:09:54.622Z,42.80
2018-12-30T12:12:20.803Z,43.10
2018-12-30T12:14:46.999Z,43.00
2018-12-30T12:17:13.224Z,42.80
2018-12-30T12:19:39.419Z,42.80
2018-12-30T12:22:05.600Z,42.80
2018-12-30T12:24:31.999Z,42.80
2018-12-30T12:26:58.922Z,42.60
2018-12-30T12:29:26.092Z,43.50
2018-12-30T12:31:52.267Z,42.80
2018-12-30T12:34:18.480Z,42.80
2018-12-30T12:36:44.694Z,42.70
2018-12-30T12:39:10.882Z,42.60
2018-12-30T12:41:37.072Z,42.60
2018-12-30T12:44:03.290Z,42.80
2018-12-30T12:46:29.499Z,42.70
2018-12-30T12:48:55.749Z,42.60
2018-12-30T12:51:21.947Z,42.60
2018-12-30T12:53:48.140Z,42.50
2018-12-30T12:56:14.413Z,42.50
2018-12-30T12:58:40.630Z,42.40
2018-12-30T13:01:06.848Z,42.60
2018-12-30T13:03:33.044Z,42.50
2018-12-30T13:05:59.313Z,42.40
2018-12-30T13:08:25.502Z,42.40
2018-12-30T13:10:51.721Z,42.40
2018-12-30T13:13:17.917Z,42.30
2018-12-30T13:15:45.901Z,42.30
2018-12-30T13:18:10.368Z,42.40
2018-12-30T13:20:36.596Z,42.30
2018-12-30T13:23:02.820Z,42.30
2018-12-30T13:25:29.010Z,42.30
2018-12-30T13:27:55.368Z,42.40
2018-12-30T13:30:21.559Z,42.40
2018-12-30T13:32:47.754Z,42.20
2018-12-30T13:35:13.993Z,42.20
2018-12-30T13:37:40.200Z,42.20
2018-12-30T13:40:06.419Z,42.10
2018-12-30T13:42:32.605Z,42.20
2018-12-30T13:44:58.912Z,42.20
2018-12-30T13:47:25.744Z,42.20
2018-12-30T13:49:51.918Z,42.20
2018-12-30T13:52:18.167Z,42.10
2018-12-30T13:54:47.888Z,42.20
2018-12-30T13:57:10.695Z,42.30
2018-12-30T13:59:36.916Z,42.20
2018-12-30T14:02:03.131Z,42.00
2018-12-30T14:04:29.346Z,42.10
2018-12-30T14:06:55.524Z,42.20
2018-12-30T14:09:22.483Z,42.30
2018-12-30T14:11:48.927Z,42.20
2018-12-30T14:14:15.131Z,42.20
2018-12-30T14:16:41.326Z,42.10
2018-12-30T14:19:09.038Z,42.20
2018-12-30T14:21:35.261Z,42.20
2018-12-30T14:24:01.457Z,42.20
2018-12-30T14:26:28.490Z,42.20
2018-12-30T14:28:54.721Z,42.20
2018-12-30T14:31:20.928Z,42.30
2018-12-30T14:33:47.156Z,42.30
2018-12-30T14:36:13.366Z,42.20
2018-12-30T14:38:39.612Z,42.20
2018-12-30T14:41:05.817Z,42.20
2018-12-30T14:43:32.009Z,42.20
2018-12-30T14:45:58.189Z,42.10
2018-12-30T14:48:24.392Z,42.20
2018-12-30T14:50:50.567Z,42.20
2018-12-30T14:53:19.345Z,42.20
2018-12-30T14:55:43.306Z,42.20
2018-12-30T14:58:09.665Z,42.10
2018-12-30T15:00:35.932Z,42.20
2018-12-30T15:03:02.336Z,42.10
2018-12-30T15:05:28.568Z,42.10
2018-12-30T15:07:55.605Z,42.20
2018-12-30T15:10:21.819Z,42.20
2018-12-30T15:12:48.309Z,42.10
2018-12-30T15:15:14.695Z,42.10
2018-12-30T15:17:40.930Z,42.10
2018-12-30T15:20:07.156Z,42.10
2018-12-30T15:22:33.395Z,42.10
2018-12-30T15:24:59.811Z,41.90
2018-12-30T15:27:26.038Z,42.00
2018-12-30T15:29:52.271Z,42.00
2018-12-30T15:32:18.892Z,41.90
2018-12-30T15:34:45.368Z,42.00
2018-12-30T15:37:11.576Z,41.90
2018-12-30T15:39:37.820Z,41.90
2018-12-30T15:42:04.859Z,42.00
2018-12-30T15:44:31.897Z,42.00
2018-12-30T15:46:58.205Z,41.90
2018-12-30T15:49:24.583Z,41.90
2018-12-30T15:51:51.035Z,41.90
2018-12-30T15:54:17.672Z,41.90
2018-12-30T15:56:44.071Z,41.80
2018-12-30T15:59:10.286Z,41.90
2018-12-30T16:01:36.526Z,42.00
2018-12-30T16:04:02.805Z,42.00
2018-12-30T16:06:29.211Z,42.00
2018-12-30T16:08:55.612Z,41.90
2018-12-30T16:11:21.908Z,42.00
2018-12-30T16:13:48.291Z,41.70
2018-12-30T16:16:14.758Z,41.80
2018-12-30T16:18:41.179Z,41.70
2018-12-30T16:21:07.634Z,41.80
2018-12-30T16:23:34.039Z,41.90
2018-12-30T16:26:00.443Z,41.90
2018-12-30T16:28:26.684Z,42.00
2018-12-30T16:30:52.894Z,41.80
2018-12-30T16:33:19.160Z,41.90
2018-12-30T16:35:45.595Z,42.00
2018-12-30T16:38:12.004Z,42.20
2018-12-30T16:40:38.213Z,42.10
2018-12-30T16:43:04.448Z,42.10
2018-12-30T16:45:30.723Z,42.10
2018-12-30T16:47:57.134Z,42.30
2018-12-30T16:50:23.386Z,42.10
2018-12-30T16:52:49.832Z,42.10
2018-12-30T16:55:17.421Z,42.30
2018-12-30T16:57:43.718Z,42.20
2018-12-30T17:00:10.122Z,42.20
2018-12-30T17:02:36.535Z,42.20
2018-12-30T17:05:05.756Z,42.20
2018-12-30T17:07:31.081Z,42.20
2018-12-30T17:09:57.480Z,42.40
2018-12-30T17:12:23.941Z,42.50
2018-12-30T17:14:50.372Z,42.50
2018-12-30T17:17:16.784Z,42.60
2018-12-30T17:19:43.027Z,42.40
2018-12-30T17:22:09.446Z,42.90
2018-12-30T17:24:35.723Z,42.70
2018-12-30T17:27:02.128Z,42.50
2018-12-30T17:29:28.591Z,42.80
2018-12-30T17:31:55.413Z,42.70
2018-12-30T17:34:21.827Z,42.80
2018-12-30T17:36:48.049Z,42.80
2018-12-30T17:41:45.847Z,43.20
2018-12-30T17:44:12.290Z,43.10
2018-12-30T17:51:41.647Z,43.60
2018-12-30T17:54:15.024Z,43.30
2018-12-30T18:14:20.900Z,43.50
2018-12-30T18:16:47.308Z,43.40
2018-12-30T18:24:18.097Z,43.70
2018-12-30T18:26:44.941Z,43.90
2018-12-30T18:29:11.474Z,44.20
2018-12-30T18:31:37.892Z,44.10
2018-12-30T18:34:04.319Z,43.90
2018-12-30T18:36:31.186Z,44.00
2018-12-30T18:38:57.622Z,44.00
2018-12-30T18:41:24.054Z,44.00
2018-12-30T18:43:50.466Z,44.40
2018-12-30T18:46:16.806Z,44.00
2018-12-30T18:48:43.146Z,44.40
2018-12-30T18:51:09.551Z,44.00
2018-12-30T18:53:35.812Z,44.70
2018-12-30T18:56:06.666Z,44.60
2018-12-30T18:58:28.660Z,44.60
2018-12-30T19:00:54.913Z,44.70
2018-12-30T19:03:21.324Z,43.80
2018-12-30T19:05:47.776Z,44.30
2018-12-30T19:08:14.415Z,43.80
2018-12-30T19:10:40.810Z,43.60
2018-12-30T19:13:08.673Z,43.40
2018-12-30T19:15:35.106Z,43.40
2018-12-30T19:18:03.956Z,43.20
2018-12-30T19:20:30.137Z,43.20
2018-12-30T19:22:57.079Z,43.30
2018-12-30T19:25:23.334Z,43.20
2018-12-30T19:27:49.561Z,43.70
2018-12-30T19:30:15.787Z,43.50
2018-12-30T19:32:41.964Z,43.70
2018-12-30T19:35:08.191Z,43.60
2018-12-30T19:37:34.401Z,43.40
2018-12-30T19:40:00.599Z,43.20
2018-12-30T19:42:27.570Z,43.30
2018-12-30T19:44:53.981Z,43.20
2018-12-30T19:47:20.414Z,43.40
2018-12-30T19:49:46.638Z,43.20
2018-12-30T19:52:12.848Z,43.30
2018-12-30T19:54:39.051Z,43.70
2018-12-30T19:57:05.282Z,43.50
2018-12-30T19:59:33.192Z,43.30
2018-12-30T20:01:59.407Z,43.30
2018-12-30T20:04:25.603Z,43.50
2018-12-30T20:06:51.878Z,43.40
2018-12-30T20:09:18.107Z,43.60
2018-12-30T20:11:44.330Z,43.40
2018-12-30T20:14:10.523Z,43.50
2018-12-30T20:16:36.729Z,43.40
2018-12-30T20:19:02.926Z,43.30
2018-12-30T20:21:29.168Z,43.50
2018-12-30T20:23:55.368Z,43.40
2018-12-30T20:26:21.704Z,43.30
2018-12-30T20:28:47.893Z,43.50
2018-12-30T20:31:14.083Z,43.40
2018-12-30T20:33:40.331Z,43.60
2018-12-30T20:36:06.529Z,43.50
2018-12-30T20:38:32.805Z,43.50
2018-12-30T20:40:59.077Z,43.40
2018-12-30T20:43:25.714Z,43.50
2018-12-30T20:45:51.915Z,43.50
2018-12-30T20:48:18.131Z,43.50
2018-12-30T20:50:45.822Z,43.70
2018-12-30T20:53:12.014Z,43.70
2018-12-30T20:55:38.190Z,43.70
2018-12-30T20:58:04.402Z,43.60
2018-12-30T21:00:31.564Z,43.60
2018-12-30T21:02:57.798Z,43.50
2018-12-30T21:05:23.973Z,43.50
2018-12-30T21:07:50.173Z,43.60
2018-12-30T21:10:16.375Z,43.60
2018-12-30T21:12:42.706Z,43.60
2018-12-30T21:15:08.903Z,43.70
2018-12-30T21:17:35.696Z,43.70
2018-12-30T21:20:01.904Z,43.60
2018-12-30T21:22:28.834Z,43.70
2018-12-30T21:24:55.022Z,43.60
2018-12-30T21:27:21.235Z,43.80
2018-12-30T21:29:47.425Z,43.80
2018-12-30T21:32:14.395Z,43.80
2018-12-30T21:34:40.584Z,43.80
2018-12-30T21:37:06.755Z,43.80
2018-12-30T21:39:32.964Z,43.70
2018-12-30T21:41:59.290Z,43.70
2018-12-30T21:44:25.492Z,43.60
2018-12-30T21:46:51.695Z,43.60
2018-12-30T21:49:17.930Z,43.60
2018-12-30T21:51:44.129Z,43.80
2018-12-30T21:54:10.431Z,43.80
2018-12-30T21:56:36.642Z,43.90
2018-12-30T21:59:02.890Z,43.90
2018-12-30T22:01:29.080Z,43.90
2018-12-30T22:03:55.450Z,43.90
2018-12-30T22:06:21.641Z,44.00
2018-12-30T22:08:47.966Z,44.00
2018-12-30T22:11:15.674Z,44.10
2018-12-30T22:13:41.846Z,44.00
2018-12-30T22:16:08.049Z,44.10
2018-12-30T22:18:34.354Z,44.20
2018-12-30T22:21:01.252Z,44.30
2018-12-30T22:23:27.507Z,44.30
2018-12-30T22:25:54.463Z,44.50
2018-12-30T22:28:20.861Z,44.40
2018-12-30T22:30:47.054Z,44.40
2018-12-30T22:33:13.237Z,44.50
2018-12-30T22:35:40.210Z,44.70
2018-12-30T22:38:06.387Z,45.20
2018-12-30T22:40:32.656Z,44.60
2018-12-30T22:42:59.093Z,44.60
2018-12-30T22:45:25.310Z,44.70
2018-12-30T22:47:51.505Z,44.70
2018-12-30T22:50:17.720Z,44.60
2018-12-30T22:52:43.894Z,44.80
2018-12-30T22:55:10.858Z,44.70
2018-12-30T22:57:37.083Z,44.70
2018-12-30T23:00:03.275Z,44.70
2018-12-30T23:02:29.535Z,44.70
2018-12-30T23:04:55.741Z,44.70
2018-12-30T23:07:21.927Z,44.70
2018-12-30T23:09:48.108Z,44.70
2018-12-30T23:12:15.060Z,44.70
2018-12-30T23:14:41.306Z,44.50
2018-12-30T23:17:07.546Z,44.60
2018-12-30T23:19:33.720Z,44.80
2018-12-30T23:21:59.924Z,44.90
2018-12-30T23:24:26.202Z,45.00
2018-12-30T23:26:52.432Z,45.10
2018-12-30T23:29:18.620Z,45.00
2018-12-30T23:31:44.819Z,45.10
2018-12-30T23:34:11.011Z,45.20
2018-12-30T23:36:37.206Z,45.30
2018-12-30T23:39:03.391Z,45.30
2018-12-30T23:41:29.618Z,45.30
2018-12-30T23:43:55.812Z,45.50
2018-12-30T23:46:22.026Z,45.40
2018-12-30T23:48:49.917Z,45.70
2018-12-30T23:51:16.146Z,45.60
2018-12-30T23:53:42.434Z,45.80
2018-12-30T23:56:08.583Z,46.20
2018-12-30T23:58:34.787Z,46.00
